createdAt,value
2022-11-15T00:02:16.385Z,0.93
2022-11-15T00:05:03.240Z,0.90
2022-11-15T00:07:55.674Z,0.78
2022-11-15T00:10:42.757Z,0.53
2022-11-15T00:13:31.155Z,0.60
2022-11-15T00:16:18.658Z,0.65
2022-11-15T00:19:05.271Z,0.57
2022-11-15T00:21:52.972Z,0.53
2022-11-15T00:24:39.412Z,0.56
2022-11-15T00:27:26.115Z,0.49
2022-11-15T00:30:13.744Z,0.47
2022-11-15T00:33:07.282Z,0.46
2022-11-15T00:35:53.885Z,0.45
2022-11-15T00:38:41.700Z,0.48
2022-11-15T00:41:28.196Z,0.42
2022-11-15T00:44:15.134Z,0.36
2022-11-15T00:47:01.654Z,0.39
2022-11-15T00:49:48.248Z,0.37
2022-11-15T00:52:34.740Z,0.33
2022-11-15T00:55:21.143Z,0.43
2022-11-15T00:58:07.524Z,0.42
2022-11-15T01:00:54.086Z,0.49
2022-11-15T01:03:44.508Z,0.46
2022-11-15T01:06:30.982Z,0.49
2022-11-15T01:09:17.720Z,0.48
2022-11-15T01:12:04.603Z,0.47
2022-11-15T01:14:51.316Z,0.39
2022-11-15T01:17:38.071Z,0.42
2022-11-15T01:20:24.593Z,0.43
2022-11-15T01:23:11.608Z,0.39
2022-11-15T01:26:02.551Z,0.44
2022-11-15T01:28:49.086Z,0.45
2022-11-15T01:31:36.557Z,0.48
2022-11-15T01:34:23.280Z,0.53
2022-11-15T01:37:11.173Z,0.56
2022-11-15T01:39:57.814Z,0.47
2022-11-15T01:42:44.437Z,0.56
2022-11-15T01:45:32.529Z,0.50
2022-11-15T01:48:18.936Z,0.46
2022-11-15T01:51:10.428Z,0.44
2022-11-15T01:54:03.325Z,0.38
2022-11-15T01:57:07.801Z,0.35
2022-11-15T01:59:55.365Z,0.34
2022-11-15T02:02:42.324Z,0.39
2022-11-15T02:05:31.312Z,0.33
2022-11-15T02:08:21.078Z,0.32
2022-11-15T02:11:10.769Z,0.28
2022-11-15T02:13:59.911Z,0.13
2022-11-15T02:17:10.887Z,0.01
2022-11-15T02:20:35.814Z,0.06
2022-11-15T02:23:27.920Z,0.02
2022-11-15T02:26:35.622Z,0.06
2022-11-15T02:29:34.093Z,0.10
2022-11-15T02:32:32.714Z,0.14
2022-11-15T02:36:02.575Z,0.16
2022-11-15T02:39:13.881Z,0.10
2022-11-15T02:42:29.969Z,0.10
2022-11-15T02:45:25.560Z,0.14
2022-11-15T02:48:13.237Z,0.17
2022-11-15T02:51:01.972Z,0.13
2022-11-15T02:53:49.278Z,0.11
2022-11-15T02:56:36.048Z,0.09
2022-11-15T02:59:45.195Z,0.07
2022-11-15T03:02:43.706Z,0.02
2022-11-15T03:05:46.507Z,0.06
2022-11-15T03:08:41.239Z,0.06
2022-11-15T03:11:30.948Z,-0.06
2022-11-15T03:14:24.770Z,-0.13
2022-11-15T03:17:24.911Z,-0.20
2022-11-15T03:20:15.616Z,-0.12
2022-11-15T03:23:10.874Z,-0.17
2022-11-15T03:25:59.196Z,-0.17
2022-11-15T03:28:58.654Z,-0.28
2022-11-15T03:31:51.197Z,-0.19
2022-11-15T03:35:18.170Z,-0.34
2022-11-15T03:38:27.515Z,-0.47
2022-11-15T03:41:24.708Z,-0.55
2022-11-15T03:44:36.764Z,-0.50
2022-11-15T03:47:29.004Z,-0.41
2022-11-15T03:50:19.900Z,-0.60
2022-11-15T03:53:06.788Z,-0.57
2022-11-15T03:55:53.715Z,-0.56
2022-11-15T03:58:40.338Z,-0.56
2022-11-15T04:01:26.927Z,-0.49
2022-11-15T04:04:13.696Z,-0.43
2022-11-15T04:07:00.450Z,-0.47
2022-11-15T04:10:06.563Z,-0.53
2022-11-15T04:12:53.195Z,-0.50
2022-11-15T04:15:39.946Z,-0.54
2022-11-15T04:18:26.648Z,-0.53
2022-11-15T04:21:31.744Z,-0.44
2022-11-15T04:24:18.335Z,-0.43
2022-11-15T04:27:05.198Z,-0.38
2022-11-15T04:29:53.891Z,-0.36
2022-11-15T04:32:40.368Z,-0.32
2022-11-15T04:35:27.635Z,-0.31
2022-11-15T04:38:14.784Z,-0.32
2022-11-15T04:41:01.470Z,-0.45
2022-11-15T04:43:48.092Z,-0.37
2022-11-15T04:46:34.621Z,-0.28
2022-11-15T04:49:23.327Z,-0.26
2022-11-15T04:52:10.012Z,-0.24
2022-11-15T04:54:57.165Z,-0.24
2022-11-15T04:57:43.831Z,-0.25
2022-11-15T05:00:30.872Z,-0.31
2022-11-15T05:03:36.646Z,-0.39
2022-11-15T05:06:23.666Z,-0.40
2022-11-15T05:09:10.126Z,-0.38
2022-11-15T05:11:56.740Z,-0.35
2022-11-15T05:14:43.311Z,-0.46
2022-11-15T05:17:29.982Z,-0.40
2022-11-15T05:20:16.867Z,-0.37
2022-11-15T05:23:03.899Z,-0.43
2022-11-15T05:25:51.225Z,-0.45
2022-11-15T05:28:39.427Z,-0.40
2022-11-15T05:31:27.362Z,-0.49
2022-11-15T05:34:13.514Z,-0.51
2022-11-15T05:37:01.586Z,-0.54
2022-11-15T05:39:48.059Z,-0.47
2022-11-15T05:42:36.412Z,-0.56
2022-11-15T05:45:26.965Z,-0.55
2022-11-15T05:48:14.711Z,-0.48
2022-11-15T05:51:03.250Z,-0.37
2022-11-15T05:53:53.245Z,-0.32
2022-11-15T05:56:40.513Z,-0.37
2022-11-15T05:59:29.540Z,-0.39
2022-11-15T06:02:16.860Z,-0.35
2022-11-15T06:05:03.877Z,-0.35
2022-11-15T06:07:50.374Z,-0.29
2022-11-15T06:10:36.909Z,-0.32
2022-11-15T06:13:23.563Z,-0.32
2022-11-15T06:16:11.843Z,-0.42
2022-11-15T06:19:00.795Z,-0.37
2022-11-15T06:21:47.713Z,-0.40
2022-11-15T06:24:35.256Z,-0.37
2022-11-15T06:27:23.461Z,-0.32
2022-11-15T06:30:12.146Z,-0.31
2022-11-15T06:33:05.591Z,-0.36
2022-11-15T06:35:52.320Z,-0.42
2022-11-15T06:38:38.951Z,-0.25
2022-11-15T06:41:26.028Z,-0.22
2022-11-15T06:44:13.837Z,-0.21
2022-11-15T06:47:00.412Z,-0.19
2022-11-15T06:49:47.374Z,-0.30
2022-11-15T06:52:34.053Z,-0.22
2022-11-15T06:55:20.837Z,-0.35
2022-11-15T06:58:08.130Z,-0.31
2022-11-15T07:00:55.567Z,-0.25
2022-11-15T07:03:43.236Z,-0.18
2022-11-15T07:06:29.611Z,-0.15
2022-11-15T07:09:16.119Z,-0.27
2022-11-15T07:12:07.556Z,-0.52
2022-11-15T07:14:54.612Z,-0.36
2022-11-15T07:17:40.950Z,-0.34
2022-11-15T07:20:27.759Z,-0.49
2022-11-15T07:23:15.423Z,-0.34
2022-11-15T07:26:01.966Z,-0.22
2022-11-15T07:28:48.762Z,-0.04
2022-11-15T07:31:35.100Z,0.02
2022-11-15T07:34:22.602Z,0.13
2022-11-15T07:37:09.603Z,0.20
2022-11-15T07:39:56.253Z,0.37
2022-11-15T07:42:57.236Z,0.36
2022-11-15T07:45:45.159Z,0.43
2022-11-15T07:48:43.472Z,0.41
2022-11-15T07:51:30.585Z,0.49
2022-11-15T07:54:18.474Z,0.51
2022-11-15T07:57:07.721Z,0.43
2022-11-15T07:59:55.000Z,0.50
2022-11-15T08:02:42.617Z,0.61
2022-11-15T08:05:29.468Z,0.62
2022-11-15T08:08:16.964Z,0.71
2022-11-15T08:11:04.349Z,0.52
2022-11-15T08:13:51.677Z,0.61
2022-11-15T08:16:38.275Z,0.88
2022-11-15T08:19:24.865Z,0.95
2022-11-15T08:22:11.242Z,0.81
2022-11-15T08:24:57.844Z,0.69
2022-11-15T08:27:44.823Z,0.96
2022-11-15T08:30:35.712Z,0.76
2022-11-15T08:33:22.003Z,0.81
2022-11-15T08:36:14.763Z,1.00
2022-11-15T08:39:01.740Z,0.99
2022-11-15T08:41:49.051Z,0.79
2022-11-15T08:44:35.942Z,0.95
2022-11-15T08:47:25.057Z,1.17
2022-11-15T08:50:11.901Z,1.32
2022-11-15T08:53:06.146Z,1.21
2022-11-15T08:58:30.501Z,1.41
2022-11-15T09:01:21.098Z,1.27
2022-11-15T09:04:07.769Z,0.88
2022-11-15T09:06:54.948Z,0.90
2022-11-15T09:09:42.295Z,1.05
2022-11-15T09:12:29.689Z,1.10
2022-11-15T09:15:18.067Z,1.05
2022-11-15T09:18:05.057Z,0.88
2022-11-15T09:20:51.619Z,1.26
2022-11-15T09:23:38.432Z,1.28
2022-11-15T09:26:26.265Z,1.47
2022-11-15T09:29:13.300Z,1.54
2022-11-15T09:32:03.173Z,1.70
2022-11-15T09:34:50.593Z,1.70
2022-11-15T09:37:37.477Z,1.83
2022-11-15T09:40:27.381Z,1.95
2022-11-15T09:43:35.954Z,1.94
2022-11-15T09:46:53.902Z,1.78
2022-11-15T09:49:39.164Z,1.76
2022-11-15T09:52:14.712Z,1.67
2022-11-15T09:54:54.703Z,1.73
2022-11-15T09:57:36.825Z,1.78
2022-11-15T10:03:22.472Z,2.20
2022-11-15T10:05:53.110Z,2.15
2022-11-15T10:09:07.600Z,2.02
2022-11-15T10:11:39.392Z,1.96
2022-11-15T10:14:20.042Z,2.02
2022-11-15T10:16:59.041Z,2.09
2022-11-15T10:19:55.047Z,2.27
2022-11-15T10:24:16.197Z,2.41
2022-11-15T10:25:35.763Z,2.58
2022-11-15T10:28:23.259Z,2.83
2022-11-15T10:30:55.069Z,2.85
2022-11-15T10:33:40.487Z,2.81
2022-11-15T10:36:09.452Z,3.13
2022-11-15T10:39:00.154Z,2.99
2022-11-15T10:41:32.962Z,3.04
2022-11-15T10:44:13.502Z,3.26
2022-11-15T10:46:47.847Z,3.27
2022-11-15T10:49:18.489Z,3.17
2022-11-15T10:51:56.707Z,3.24
2022-11-15T10:54:45.093Z,3.15
2022-11-15T10:57:20.446Z,3.04
2022-11-15T11:00:01.744Z,2.79
2022-11-15T11:02:37.674Z,3.09
2022-11-15T11:05:26.628Z,3.10
2022-11-15T11:08:20.306Z,3.29
2022-11-15T11:11:02.221Z,3.44
2022-11-15T11:13:40.350Z,3.51
2022-11-15T11:16:14.670Z,3.64
2022-11-15T11:19:12.418Z,3.57
2022-11-15T11:22:00.896Z,3.40
2022-11-15T11:24:31.692Z,3.45
2022-11-15T11:27:20.328Z,3.27
2022-11-15T11:30:05.140Z,3.55
2022-11-15T11:32:46.300Z,3.68
2022-11-15T11:35:18.674Z,3.86
2022-11-15T11:37:59.012Z,3.99
2022-11-15T11:40:37.103Z,4.14
2022-11-15T11:43:34.558Z,4.09
2022-11-15T11:46:30.132Z,3.97
2022-11-15T11:49:28.162Z,3.97
2022-11-15T11:52:21.069Z,4.09
2022-11-15T11:55:15.104Z,4.10
2022-11-15T11:58:15.803Z,4.15
2022-11-15T12:01:17.750Z,4.15
2022-11-15T12:04:04.865Z,4.29
2022-11-15T12:06:58.092Z,4.33
2022-11-15T12:09:54.854Z,4.38
2022-11-15T12:12:51.771Z,4.32
2022-11-15T12:15:27.757Z,4.06
2022-11-15T12:17:57.924Z,4.12
2022-11-15T12:20:36.027Z,3.87
2022-11-15T12:23:14.503Z,3.67
2022-11-15T12:26:11.204Z,3.60
2022-11-15T12:29:07.558Z,3.84
2022-11-15T12:31:44.889Z,3.82
2022-11-15T12:34:22.186Z,3.65
2022-11-15T12:36:52.655Z,3.63
2022-11-15T12:39:22.506Z,3.65
2022-11-15T12:41:57.379Z,3.57
2022-11-15T12:44:48.418Z,3.65
2022-11-15T12:47:25.798Z,3.77
2022-11-15T12:49:55.279Z,3.82
2022-11-15T12:52:23.382Z,3.97
2022-11-15T12:54:54.621Z,3.88
2022-11-15T12:57:40.605Z,3.78
2022-11-15T13:00:15.315Z,3.93
2022-11-15T13:02:47.140Z,4.00
2022-11-15T13:05:17.172Z,3.94
2022-11-15T13:07:48.086Z,3.95
2022-11-15T13:10:31.190Z,4.04
2022-11-15T13:13:03.757Z,4.12
2022-11-15T13:15:41.343Z,4.09
2022-11-15T13:18:45.186Z,4.06
2022-11-15T13:21:43.199Z,3.95
2022-11-15T13:24:14.750Z,3.84
2022-11-15T13:26:45.260Z,3.81
2022-11-15T13:29:21.150Z,3.86
2022-11-15T13:31:50.181Z,3.88
2022-11-15T13:37:21.712Z,3.96
2022-11-15T13:39:51.401Z,3.94
2022-11-15T13:42:21.698Z,3.99
2022-11-15T13:44:59.708Z,3.86
2022-11-15T13:47:30.007Z,3.65
2022-11-15T13:49:59.389Z,3.52
2022-11-15T13:52:36.495Z,3.48
2022-11-15T13:55:12.197Z,3.50
2022-11-15T13:57:46.470Z,3.45
2022-11-15T14:00:27.465Z,3.55
2022-11-15T14:02:56.508Z,3.57
2022-11-15T14:05:28.036Z,3.57
2022-11-15T14:07:58.613Z,3.52
2022-11-15T14:10:37.784Z,3.54
2022-11-15T14:13:27.317Z,3.59
2022-11-15T14:15:55.342Z,3.48
2022-11-15T14:18:42.580Z,3.54
2022-11-15T14:21:10.846Z,3.61
2022-11-15T14:23:41.343Z,3.55
2022-11-15T14:26:31.042Z,3.47
2022-11-15T14:29:31.702Z,3.17
2022-11-15T14:32:44.040Z,3.21
2022-11-15T14:35:19.355Z,3.29
2022-11-15T14:37:48.629Z,3.42
2022-11-15T14:40:23.185Z,3.40
2022-11-15T14:42:51.445Z,3.41
2022-11-15T14:45:21.752Z,3.51
2022-11-15T14:47:50.944Z,3.54
2022-11-15T14:50:21.496Z,3.54
2022-11-15T14:52:50.744Z,3.50
2022-11-15T14:55:25.814Z,3.45
2022-11-15T14:57:53.863Z,3.44
2022-11-15T15:00:23.098Z,3.50
2022-11-15T15:02:54.443Z,3.54
2022-11-15T15:05:27.201Z,3.54
2022-11-15T15:07:55.411Z,3.42
2022-11-15T15:10:39.379Z,3.33
2022-11-15T15:13:20.482Z,3.25
2022-11-15T15:15:50.032Z,3.23
2022-11-15T15:18:20.893Z,3.31
2022-11-15T15:20:57.538Z,3.28
2022-11-15T15:23:31.502Z,3.33
2022-11-15T15:26:00.987Z,3.35
2022-11-15T15:28:34.231Z,3.37
2022-11-15T15:31:03.604Z,3.35
2022-11-15T15:33:32.609Z,3.39
2022-11-15T15:36:00.773Z,3.33
2022-11-15T15:38:29.159Z,3.39
2022-11-15T15:40:59.470Z,3.39
2022-11-15T15:43:27.690Z,3.45
2022-11-15T15:45:56.052Z,3.43
2022-11-15T15:48:24.608Z,3.47
2022-11-15T15:50:53.323Z,3.42
2022-11-15T15:53:23.123Z,3.37
2022-11-15T15:55:51.173Z,3.23
2022-11-15T15:58:19.332Z,3.31
2022-11-15T16:00:47.730Z,3.39
2022-11-15T16:03:16.031Z,3.36
2022-11-15T16:05:44.832Z,3.40
2022-11-15T16:08:27.689Z,3.46
2022-11-15T16:10:56.486Z,3.47
2022-11-15T16:13:24.783Z,3.30
2022-11-15T16:15:55.504Z,3.35
2022-11-15T16:18:23.536Z,3.34
2022-11-15T16:20:53.324Z,3.41
2022-11-15T16:23:23.719Z,3.43
2022-11-15T16:25:56.782Z,3.43
2022-11-15T16:28:30.800Z,3.39
2022-11-15T16:31:13.336Z,3.37
2022-11-15T16:33:42.764Z,3.32
2022-11-15T16:36:30.835Z,3.34
2022-11-15T16:39:00.833Z,3.33
2022-11-15T16:41:28.832Z,3.32
2022-11-15T16:43:57.823Z,3.35
2022-11-15T16:46:27.766Z,3.31
2022-11-15T16:48:56.175Z,3.18
2022-11-15T16:51:24.257Z,3.06
2022-11-15T16:53:52.486Z,2.91
2022-11-15T16:56:20.418Z,2.98
2022-11-15T16:58:48.669Z,2.87
2022-11-15T17:01:24.341Z,2.83
2022-11-15T17:03:52.999Z,2.78
2022-11-15T17:06:26.711Z,2.78
2022-11-15T17:08:54.710Z,2.85
2022-11-15T17:11:22.992Z,2.89
2022-11-15T17:13:51.019Z,2.89
2022-11-15T17:16:19.383Z,2.83
2022-11-15T17:18:53.695Z,2.73
2022-11-15T17:21:22.959Z,2.74
2022-11-15T17:23:50.972Z,2.80
2022-11-15T17:26:40.272Z,2.73
2022-11-15T17:29:12.127Z,2.74
2022-11-15T17:31:42.791Z,2.79
2022-11-15T17:34:10.902Z,2.82
2022-11-15T17:36:38.922Z,2.81
2022-11-15T17:39:07.563Z,2.82
2022-11-15T17:41:35.692Z,2.84
2022-11-15T17:44:04.200Z,2.86
2022-11-15T17:46:36.469Z,2.84
2022-11-15T17:49:05.165Z,2.89
2022-11-15T17:51:34.439Z,2.92
2022-11-15T17:54:03.801Z,2.86
2022-11-15T17:56:32.567Z,2.96
2022-11-15T17:59:01.057Z,2.97
2022-11-15T18:01:31.423Z,3.05
2022-11-15T18:04:02.238Z,3.09
2022-11-15T18:06:32.840Z,3.13
2022-11-15T18:09:01.862Z,3.11
2022-11-15T18:11:35.442Z,3.14
2022-11-15T18:14:06.098Z,3.08
2022-11-15T18:16:36.686Z,3.10
2022-11-15T18:19:22.984Z,3.02
2022-11-15T18:21:57.737Z,3.09
2022-11-15T18:24:35.784Z,3.02
2022-11-15T18:27:08.459Z,2.93
2022-11-15T18:29:38.344Z,2.97
2022-11-15T18:32:26.933Z,3.01
2022-11-15T18:34:55.668Z,3.04
2022-11-15T18:37:24.225Z,3.00
2022-11-15T18:39:53.988Z,3.01
2022-11-15T18:42:22.336Z,3.01
2022-11-15T18:44:50.395Z,3.03
2022-11-15T18:47:18.380Z,3.07
2022-11-15T18:49:46.947Z,3.11
2022-11-15T18:52:14.891Z,3.14
2022-11-15T18:54:44.351Z,3.17
2022-11-15T18:57:12.365Z,3.16
2022-11-15T18:59:41.002Z,3.17
2022-11-15T19:02:13.310Z,3.17
2022-11-15T19:04:42.808Z,3.17
2022-11-15T19:07:12.652Z,3.14
2022-11-15T19:09:40.619Z,3.05
2022-11-15T19:12:08.921Z,3.03
2022-11-15T19:14:37.023Z,3.14
2022-11-15T19:17:05.068Z,3.19
2022-11-15T19:19:34.215Z,3.26
2022-11-15T19:22:02.559Z,3.32
2022-11-15T19:24:30.779Z,3.28
2022-11-15T19:26:59.250Z,3.33
2022-11-15T19:29:28.407Z,3.14
2022-11-15T19:31:57.814Z,3.17
2022-11-15T19:34:25.800Z,3.21
2022-11-15T19:36:54.155Z,3.25
2022-11-15T19:39:22.839Z,3.28
2022-11-15T19:41:52.808Z,3.29
2022-11-15T19:44:23.467Z,3.31
2022-11-15T19:46:53.918Z,3.31
2022-11-15T19:49:23.219Z,3.31
2022-11-15T19:51:51.285Z,3.26
2022-11-15T19:54:19.504Z,3.26
2022-11-15T19:56:47.716Z,3.16
2022-11-15T19:59:17.759Z,3.15
2022-11-15T20:01:48.959Z,3.19
2022-11-15T20:04:17.698Z,3.17
2022-11-15T20:06:45.761Z,3.24
2022-11-15T20:09:17.325Z,3.30
2022-11-15T20:11:47.353Z,3.33
2022-11-15T20:14:15.642Z,3.36
2022-11-15T20:16:44.259Z,3.35
2022-11-15T20:19:16.035Z,3.19
2022-11-15T20:21:44.391Z,3.30
2022-11-15T20:24:12.425Z,3.33
2022-11-15T20:26:40.627Z,3.24
2022-11-15T20:29:10.102Z,3.26
2022-11-15T20:31:39.785Z,3.24
2022-11-15T20:34:07.937Z,3.30
2022-11-15T20:36:36.127Z,3.24
2022-11-15T20:39:04.246Z,3.25
2022-11-15T20:41:33.138Z,3.30
2022-11-15T20:44:03.245Z,3.15
2022-11-15T20:46:31.312Z,3.25
2022-11-15T20:48:59.523Z,3.26
2022-11-15T20:51:27.392Z,3.29
2022-11-15T20:53:56.026Z,3.36
2022-11-15T20:56:24.235Z,3.35
2022-11-15T20:58:57.127Z,3.42
2022-11-15T21:01:27.652Z,3.37
2022-11-15T21:03:56.838Z,3.38
2022-11-15T21:06:27.006Z,3.38
2022-11-15T21:09:14.595Z,3.38
2022-11-15T21:12:01.312Z,3.43
2022-11-15T21:14:31.367Z,3.46
2022-11-15T21:17:00.272Z,3.40
2022-11-15T21:19:34.033Z,3.45
2022-11-15T21:22:07.840Z,3.47
2022-11-15T21:24:36.137Z,3.48
2022-11-15T21:27:04.278Z,3.48
2022-11-15T21:29:38.912Z,3.45
2022-11-15T21:32:08.919Z,3.48
2022-11-15T21:34:38.716Z,3.47
2022-11-15T21:37:07.131Z,3.42
2022-11-15T21:39:35.218Z,3.45
2022-11-15T21:42:03.905Z,3.44
2022-11-15T21:44:32.188Z,3.39
2022-11-15T21:47:00.630Z,3.40
2022-11-15T21:49:29.823Z,3.39
2022-11-15T21:51:58.036Z,3.32
2022-11-15T21:54:25.944Z,3.32
2022-11-15T21:56:54.135Z,3.29
2022-11-15T21:59:22.073Z,3.27
2022-11-15T22:02:08.992Z,3.21
2022-11-15T22:04:37.047Z,3.06
2022-11-15T22:07:06.469Z,3.08
2022-11-15T22:09:34.420Z,3.10
2022-11-15T22:12:02.391Z,3.08
2022-11-15T22:14:30.400Z,3.08
2022-11-15T22:16:58.433Z,3.09
2022-11-15T22:19:26.609Z,3.07
2022-11-15T22:21:54.684Z,3.08
2022-11-15T22:24:23.501Z,3.11
2022-11-15T22:26:52.404Z,3.13
2022-11-15T22:29:21.178Z,3.12
2022-11-15T22:31:50.258Z,3.11
2022-11-15T22:34:18.305Z,3.09
2022-11-15T22:37:18.389Z,3.07
2022-11-15T22:39:34.427Z,3.05
2022-11-15T22:42:02.442Z,3.02
2022-11-15T22:44:30.469Z,3.00
2022-11-15T22:46:58.468Z,3.01
2022-11-15T22:49:26.450Z,3.01
2022-11-15T22:51:55.924Z,3.03
2022-11-15T22:54:23.901Z,3.09
2022-11-15T22:56:51.897Z,3.06
2022-11-15T22:59:19.891Z,3.06
2022-11-15T23:01:47.935Z,3.04
2022-11-15T23:04:16.078Z,3.07
2022-11-15T23:06:44.049Z,3.09
2022-11-15T23:09:12.053Z,3.10
2022-11-15T23:11:58.588Z,3.08
2022-11-15T23:14:28.967Z,3.02
2022-11-15T23:16:58.025Z,3.05
2022-11-15T23:19:26.235Z,3.07
2022-11-15T23:22:12.930Z,3.02
2022-11-15T23:24:41.146Z,3.05
2022-11-15T23:27:09.235Z,3.00
2022-11-15T23:29:57.467Z,2.98
2022-11-15T23:32:44.044Z,3.00
2022-11-15T23:35:12.676Z,3.03
2022-11-15T23:37:40.718Z,3.05
2022-11-15T23:40:09.702Z,3.05
2022-11-15T23:42:37.730Z,3.05
2022-11-15T23:45:07.045Z,2.99
2022-11-15T23:47:35.152Z,2.87
2022-11-15T23:50:04.069Z,2.91
2022-11-15T23:52:32.540Z,2.89
2022-11-15T23:55:01.157Z,2.91
2022-11-15T23:57:29.155Z,2.96
2022-11-15T23:59:59.330Z,2.95
